Time;durP1;ratioP1;P1;durP2;ratioP2;P2;SDS_P1;SDS_P2;PMS_P1;PMS_P2;Temp;Humidity;BMP_temperature;BMP_pressure;BME280_temperature;BME280_humidity;BME280_pressure;Samples;Min_cycle;Max_cycle;Signal;HPM_P1;HPM_P2
2022/04/14 00:02:00;;;;;;;19.95;13.35;;;;;;;;;;5071283;28;20044;-26
2022/04/14 00:04:26;;;;;;;16.67;12.95;;;;;;;;;;5071025;28;20045;-28
2022/04/14 00:06:52;;;;;;;15.77;12.35;;;;;;;;;;5071299;28;20451;-27
2022/04/14 00:09:18;;;;;;;17.35;12.88;;;;;;;;;;5071278;28;20041;-26
2022/04/14 00:11:44;;;;;;;16.02;11.98;;;;;;;;;;5071149;28;20397;-28
2022/04/14 00:14:10;;;;;;;17.65;12.50;;;;;;;;;;5071113;28;20536;-26
2022/04/14 00:16:36;;;;;;;15.57;11.85;;;;;;;;;;5071103;28;20037;-27
2022/04/14 00:19:03;;;;;;;17.20;12.70;;;;;;;;;;5070979;28;20039;-29
2022/04/14 00:21:29;;;;;;;16.35;12.52;;;;;;;;;;5071326;28;20495;-27
2022/04/14 00:23:55;;;;;;;16.23;13.10;;;;;;;;;;5071066;28;20076;-29
2022/04/14 00:26:21;;;;;;;16.92;12.13;;;;;;;;;;5074003;28;20044;-27
2022/04/14 00:28:47;;;;;;;15.18;11.80;;;;;;;;;;5074746;28;20076;-27
2022/04/14 00:31:13;;;;;;;19.02;13.20;;;;;;;;;;5056702;28;20044;-27
2022/04/14 00:33:39;;;;;;;15.18;13.20;;;;;;;;;;5074805;28;20037;-26
2022/04/14 00:36:05;;;;;;;18.50;13.27;;;;;;;;;;5074822;28;20416;-26
2022/04/14 00:38:31;;;;;;;17.80;12.80;;;;;;;;;;5074678;28;20044;-27
2022/04/14 00:40:57;;;;;;;17.42;13.60;;;;;;;;;;5074745;28;20120;-26
2022/04/14 00:43:33;;;;;;;14.95;12.95;;;;;;;;;;5074950;28;20559;-27
2022/04/14 00:46:00;;;;;;;18.52;13.38;;;;;;;;;;5074731;28;20048;-27
2022/04/14 00:48:26;;;;;;;14.82;13.18;;;;;;;;;;5074777;28;20040;-27
2022/04/14 00:50:52;;;;;;;18.73;14.27;;;;;;;;;;5074520;28;20048;-27
2022/04/14 00:53:18;;;;;;;22.10;15.25;;;;;;;;;;5075087;28;20052;-27
2022/04/14 00:55:44;;;;;;;16.88;13.68;;;;;;;;;;5074898;28;20072;-27
2022/04/14 00:58:11;;;;;;;14.77;12.77;;;;;;;;;;5074600;28;20517;-26
2022/04/14 01:00:37;;;;;;;16.08;12.30;;;;;;;;;;5074337;28;20652;-27
2022/04/14 01:03:03;;;;;;;17.00;14.15;;;;;;;;;;5074324;28;20109;-27
2022/04/14 01:05:30;;;;;;;17.00;13.57;;;;;;;;;;5074423;28;20063;-28
2022/04/14 01:07:57;;;;;;;16.70;13.40;;;;;;;;;;5074616;28;20044;-27
2022/04/14 01:10:24;;;;;;;15.60;13.60;;;;;;;;;;5074166;28;20235;-26
2022/04/14 01:12:50;;;;;;;16.40;13.90;;;;;;;;;;5074114;28;20040;-27
2022/04/14 01:15:16;;;;;;;17.40;14.82;;;;;;;;;;5074196;28;20055;-25
2022/04/14 01:17:42;;;;;;;18.48;14.65;;;;;;;;;;5074403;28;20394;-26
2022/04/14 01:20:11;;;;;;;19.70;15.20;;;;;;;;;;5074553;28;20398;-26
2022/04/14 01:22:41;;;;;;;21.67;15.77;;;;;;;;;;5074372;28;20043;-27
2022/04/14 01:25:07;;;;;;;21.13;17.13;;;;;;;;;;5056181;28;20044;-26
2022/04/14 01:27:33;;;;;;;18.25;15.43;;;;;;;;;;5074213;28;20490;-26
2022/04/14 01:29:59;;;;;;;21.50;16.88;;;;;;;;;;5073916;28;20050;-26
2022/04/14 01:32:25;;;;;;;22.17;17.83;;;;;;;;;;5074146;28;20126;-26
2022/04/14 01:34:52;;;;;;;22.00;16.35;;;;;;;;;;5073580;28;20040;-26
2022/04/14 01:37:18;;;;;;;21.23;16.40;;;;;;;;;;5072219;28;20048;-27
2022/04/14 01:39:44;;;;;;;23.23;17.27;;;;;;;;;;5073703;28;20085;-27
2022/04/14 01:42:10;;;;;;;22.92;18.00;;;;;;;;;;5073839;28;20040;-27
2022/04/14 01:44:36;;;;;;;22.45;17.85;;;;;;;;;;5073690;28;20057;-26
2022/04/14 01:47:03;;;;;;;28.38;20.83;;;;;;;;;;5073655;28;20507;-27
2022/04/14 01:49:29;;;;;;;27.80;19.40;;;;;;;;;;5073554;28;20510;-26
2022/04/14 01:51:55;;;;;;;22.90;17.92;;;;;;;;;;5073318;28;20483;-27
2022/04/14 01:54:21;;;;;;;25.40;18.17;;;;;;;;;;5072914;28;20050;-28
2022/04/14 01:56:47;;;;;;;27.83;21.17;;;;;;;;;;5073290;28;20044;-26
2022/04/14 01:59:13;;;;;;;22.88;18.90;;;;;;;;;;5073103;28;20094;-26
2022/04/14 02:01:39;;;;;;;21.08;17.58;;;;;;;;;;5073369;28;20040;-30
2022/04/14 02:04:07;;;;;;;22.05;17.67;;;;;;;;;;5073012;28;20128;-26
2022/04/14 02:06:33;;;;;;;28.38;20.65;;;;;;;;;;5073092;28;20097;-26
2022/04/14 02:08:59;;;;;;;26.95;20.42;;;;;;;;;;5073128;28;20428;-29
2022/04/14 02:11:26;;;;;;;25.58;18.73;;;;;;;;;;5072814;28;20041;-28
2022/04/14 02:13:52;;;;;;;27.42;19.10;;;;;;;;;;5072918;28;20127;-26
2022/04/14 02:16:18;;;;;;;22.70;17.00;;;;;;;;;;5072575;28;20044;-28
2022/04/14 02:18:44;;;;;;;28.73;17.98;;;;;;;;;;5072704;28;20044;-27
2022/04/14 02:21:10;;;;;;;25.50;17.88;;;;;;;;;;5072224;28;20033;-26
2022/04/14 02:23:36;;;;;;;21.67;17.40;;;;;;;;;;5072747;28;20043;-27
2022/04/14 02:26:02;;;;;;;27.83;19.27;;;;;;;;;;5072939;28;20390;-27
2022/04/14 02:28:28;;;;;;;24.55;19.10;;;;;;;;;;5072637;28;20383;-28
2022/04/14 02:30:54;;;;;;;24.23;19.48;;;;;;;;;;5072415;28;20460;-27
2022/04/14 02:33:20;;;;;;;22.95;18.55;;;;;;;;;;5072517;28;20429;-26
2022/04/14 02:35:46;;;;;;;22.42;17.67;;;;;;;;;;5072447;28;20071;-27
2022/04/14 02:38:13;;;;;;;24.77;18.85;;;;;;;;;;5072182;28;20429;-27
2022/04/14 02:40:39;;;;;;;25.42;19.20;;;;;;;;;;5072294;28;20070;-26
2022/04/14 02:43:05;;;;;;;29.52;21.77;;;;;;;;;;5072249;28;20043;-26
2022/04/14 02:45:31;;;;;;;21.15;17.05;;;;;;;;;;5072001;28;20080;-26
2022/04/14 02:47:58;;;;;;;22.65;17.30;;;;;;;;;;5071717;28;20044;-25
2022/04/14 02:50:24;;;;;;;22.42;18.58;;;;;;;;;;5072175;28;20051;-26
2022/04/14 02:52:50;;;;;;;20.52;17.02;;;;;;;;;;5071007;28;20047;-26
2022/04/14 02:55:17;;;;;;;25.23;19.52;;;;;;;;;;5072158;28;20033;-29
2022/04/14 02:57:44;;;;;;;22.67;17.48;;;;;;;;;;5071420;28;20044;-26
2022/04/14 03:00:10;;;;;;;28.10;20.58;;;;;;;;;;5071912;28;20032;-26
2022/04/14 03:02:37;;;;;;;24.05;18.63;;;;;;;;;;5071575;28;20071;-26
2022/04/14 03:05:04;;;;;;;22.00;17.55;;;;;;;;;;5071774;28;20043;-27
2022/04/14 03:07:30;;;;;;;25.95;19.33;;;;;;;;;;5072054;28;20051;-27
2022/04/14 03:09:56;;;;;;;25.45;20.17;;;;;;;;;;5071511;28;20075;-27
2022/04/14 03:12:22;;;;;;;23.63;20.35;;;;;;;;;;5071932;28;20045;-26
2022/04/14 03:14:48;;;;;;;30.20;24.00;;;;;;;;;;5071631;28;20090;-27
2022/04/14 03:17:14;;;;;;;35.95;26.27;;;;;;;;;;5071561;28;20044;-25
2022/04/14 03:19:40;;;;;;;34.20;25.90;;;;;;;;;;5071745;28;20111;-26
2022/04/14 03:22:06;;;;;;;33.88;25.23;;;;;;;;;;5071724;28;20071;-25
2022/04/14 03:24:32;;;;;;;34.22;25.10;;;;;;;;;;5071655;28;20040;-26
2022/04/14 03:26:59;;;;;;;30.98;23.05;;;;;;;;;;5071495;28;20068;-26
2022/04/14 03:29:26;;;;;;;37.38;25.50;;;;;;;;;;5071510;28;20040;-27
2022/04/14 03:31:52;;;;;;;28.42;23.05;;;;;;;;;;5071718;28;20055;-30
2022/04/14 03:34:18;;;;;;;29.05;21.30;;;;;;;;;;5071184;28;20041;-26
2022/04/14 03:36:44;;;;;;;27.65;21.30;;;;;;;;;;5071483;28;20408;-26
2022/04/14 03:39:10;;;;;;;34.72;26.40;;;;;;;;;;5071091;28;20116;-28
2022/04/14 03:41:36;;;;;;;30.80;22.75;;;;;;;;;;5070990;28;20115;-29
2022/04/14 03:44:02;;;;;;;36.65;25.95;;;;;;;;;;5068923;28;20463;-29
2022/04/14 03:46:28;;;;;;;43.60;29.40;;;;;;;;;;5070534;28;20470;-28
2022/04/14 03:48:58;;;;;;;40.58;26.75;;;;;;;;;;5070382;28;20036;-30
2022/04/14 03:51:24;;;;;;;34.33;24.58;;;;;;;;;;5071030;28;20115;-27
2022/04/14 03:53:50;;;;;;;30.02;23.08;;;;;;;;;;5070436;28;20099;-31
2022/04/14 03:56:16;;;;;;;28.55;21.92;;;;;;;;;;5070711;28;20036;-27
2022/04/14 03:58:42;;;;;;;33.78;23.65;;;;;;;;;;5070413;28;20036;-27
2022/04/14 04:01:08;;;;;;;38.15;28.25;;;;;;;;;;5069446;28;20040;-29
2022/04/14 04:03:34;;;;;;;31.10;24.08;;;;;;;;;;5070395;28;20033;-29
2022/04/14 04:06:00;;;;;;;33.65;23.92;;;;;;;;;;5070764;28;20051;-27
2022/04/14 04:08:26;;;;;;;32.25;22.80;;;;;;;;;;5070646;28;20090;-27
2022/04/14 04:10:52;;;;;;;29.35;21.80;;;;;;;;;;5052706;28;20083;-29
2022/04/14 04:13:18;;;;;;;30.10;22.75;;;;;;;;;;5069693;28;20455;-27
2022/04/14 04:15:45;;;;;;;26.92;20.20;;;;;;;;;;5070403;28;20047;-27
2022/04/14 04:18:11;;;;;;;32.38;22.85;;;;;;;;;;5070061;28;20048;-28
2022/04/14 04:20:38;;;;;;;30.08;22.27;;;;;;;;;;5070423;28;20134;-31
2022/04/14 04:23:07;;;;;;;36.30;28.02;;;;;;;;;;5070585;28;20033;-30
2022/04/14 04:25:33;;;;;;;26.25;22.02;;;;;;;;;;5071055;28;20044;-28
2022/04/14 04:27:59;;;;;;;29.85;22.27;;;;;;;;;;5070460;28;20123;-27
2022/04/14 04:30:25;;;;;;;29.58;21.92;;;;;;;;;;5070258;28;20044;-28
2022/04/14 04:32:51;;;;;;;31.40;21.45;;;;;;;;;;5070508;28;20048;-27
2022/04/14 04:35:18;;;;;;;29.17;23.75;;;;;;;;;;5070250;28;20102;-29
2022/04/14 04:37:44;;;;;;;27.48;20.73;;;;;;;;;;5070786;28;20048;-30
2022/04/14 04:40:11;;;;;;;36.97;25.80;;;;;;;;;;5070733;28;20062;-31
2022/04/14 04:42:37;;;;;;;29.83;24.50;;;;;;;;;;5069745;28;20123;-32
2022/04/14 04:45:03;;;;;;;33.13;24.85;;;;;;;;;;5069326;28;20045;-28
2022/04/14 04:47:29;;;;;;;38.75;26.08;;;;;;;;;;5055585;28;20116;-29
2022/04/14 04:49:55;;;;;;;45.72;30.35;;;;;;;;;;5060639;28;20474;-28
2022/04/14 04:52:21;;;;;;;38.85;27.77;;;;;;;;;;5054308;28;20517;-30
2022/04/14 04:54:47;;;;;;;37.67;27.88;;;;;;;;;;5051664;28;20032;-28
2022/04/14 04:57:13;;;;;;;29.05;23.05;;;;;;;;;;5058512;28;20106;-27
2022/04/14 04:59:39;;;;;;;32.35;23.75;;;;;;;;;;5064903;28;20115;-29
2022/04/14 05:02:05;;;;;;;34.53;25.42;;;;;;;;;;5050270;28;20450;-28
2022/04/14 05:04:31;;;;;;;44.10;31.20;;;;;;;;;;5054321;28;20049;-29
2022/04/14 05:06:57;;;;;;;33.05;26.92;;;;;;;;;;5070473;28;20486;-30
2022/04/14 05:09:26;;;;;;;30.65;23.98;;;;;;;;;;5068865;28;20097;-28
2022/04/14 05:11:52;;;;;;;32.13;26.20;;;;;;;;;;5071750;28;20048;-28
2022/04/14 05:14:18;;;;;;;32.17;23.38;;;;;;;;;;5072939;28;20052;-28
2022/04/14 05:16:44;;;;;;;33.05;24.92;;;;;;;;;;5073506;28;20055;-29
2022/04/14 05:19:10;;;;;;;34.95;27.33;;;;;;;;;;5073521;28;20040;-30
2022/04/14 05:21:36;;;;;;;42.83;30.52;;;;;;;;;;5072857;28;20384;-27
2022/04/14 05:24:03;;;;;;;34.55;28.30;;;;;;;;;;5073926;28;20047;-28
2022/04/14 05:26:29;;;;;;;33.42;26.60;;;;;;;;;;5073546;28;20033;-27
2022/04/14 05:28:55;;;;;;;39.55;29.85;;;;;;;;;;5072279;28;20079;-27
2022/04/14 05:31:21;;;;;;;41.38;29.42;;;;;;;;;;5073676;28;20040;-28
2022/04/14 05:33:48;;;;;;;34.97;25.98;;;;;;;;;;5070201;28;20055;-27
2022/04/14 05:36:14;;;;;;;40.75;30.13;;;;;;;;;;5060352;28;20452;-26
2022/04/14 05:38:40;;;;;;;34.80;26.48;;;;;;;;;;5072106;28;20048;-29
2022/04/14 05:41:08;;;;;;;38.65;30.35;;;;;;;;;;5055011;28;20040;-27
2022/04/14 05:43:34;;;;;;;35.38;25.63;;;;;;;;;;5073306;28;20444;-26
2022/04/14 05:46:01;;;;;;;34.10;26.70;;;;;;;;;;5072065;28;20072;-29
2022/04/14 05:48:27;;;;;;;36.95;27.52;;;;;;;;;;5073086;28;20048;-29
2022/04/14 05:50:53;;;;;;;39.20;29.95;;;;;;;;;;5072564;28;20138;-29
2022/04/14 05:53:25;;;;;;;32.63;26.50;;;;;;;;;;5073002;28;20561;-30
2022/04/14 05:55:51;;;;;;;39.15;29.25;;;;;;;;;;5072012;28;20036;-30
2022/04/14 05:58:17;;;;;;;45.13;33.13;;;;;;;;;;5072392;28;20058;-31
2022/04/14 06:00:43;;;;;;;34.97;28.02;;;;;;;;;;5072709;28;20386;-29
2022/04/14 06:03:09;;;;;;;52.03;38.45;;;;;;;;;;5072376;28;20368;-31
2022/04/14 06:05:35;;;;;;;41.58;31.23;;;;;;;;;;5072263;28;20048;-31
2022/04/14 06:08:02;;;;;;;55.45;39.03;;;;;;;;;;5072776;28;20129;-30
2022/04/14 06:10:28;;;;;;;51.03;37.28;;;;;;;;;;5072003;28;20545;-29
2022/04/14 06:12:55;;;;;;;62.00;42.38;;;;;;;;;;5072436;28;20448;-31
2022/04/14 06:15:21;;;;;;;49.90;37.88;;;;;;;;;;5072392;28;20421;-30
2022/04/14 06:17:47;;;;;;;54.63;38.55;;;;;;;;;;5070659;28;20052;-29
2022/04/14 06:20:13;;;;;;;49.10;37.78;;;;;;;;;;5071966;28;20042;-30
2022/04/14 06:22:43;;;;;;;45.60;33.60;;;;;;;;;;5071408;28;20040;-30
2022/04/14 06:25:13;;;;;;;56.53;37.45;;;;;;;;;;5064134;28;20110;-30
2022/04/14 06:27:40;;;;;;;52.85;39.15;;;;;;;;;;5054704;28;20040;-29
2022/04/14 06:30:08;;;;;;;55.15;37.10;;;;;;;;;;5062908;28;20040;-30
2022/04/14 06:32:34;;;;;;;57.95;38.75;;;;;;;;;;5071599;28;20440;-30
2022/04/14 06:35:00;;;;;;;48.63;34.47;;;;;;;;;;5072068;28;20115;-30
2022/04/14 06:37:26;;;;;;;55.25;38.30;;;;;;;;;;5071047;28;20509;-31
2022/04/14 06:39:52;;;;;;;48.97;36.30;;;;;;;;;;5071976;28;20041;-30
2022/04/14 06:42:22;;;;;;;48.58;33.75;;;;;;;;;;5071059;28;20041;-26
2022/04/14 06:44:49;;;;;;;48.85;36.90;;;;;;;;;;5072488;28;20055;-27
2022/04/14 06:47:15;;;;;;;46.75;34.88;;;;;;;;;;5072383;28;20048;-26
2022/04/14 06:49:41;;;;;;;46.90;35.78;;;;;;;;;;5071910;28;20044;-27
2022/04/14 06:52:07;;;;;;;52.80;36.38;;;;;;;;;;5072252;28;20040;-26
2022/04/14 06:54:34;;;;;;;55.13;37.35;;;;;;;;;;5072014;28;20072;-27
2022/04/14 06:57:00;;;;;;;50.55;37.67;;;;;;;;;;5072426;28;20055;-27
2022/04/14 06:59:27;;;;;;;46.33;33.45;;;;;;;;;;5071590;28;20048;-29
2022/04/14 07:01:53;;;;;;;48.05;36.20;;;;;;;;;;5070104;28;20165;-28
2022/04/14 07:04:19;;;;;;;50.42;34.30;;;;;;;;;;5069324;28;20039;-27
2022/04/14 07:06:46;;;;;;;48.72;34.75;;;;;;;;;;5068909;28;20040;-27
2022/04/14 07:09:13;;;;;;;48.20;34.22;;;;;;;;;;5050353;28;20044;-27
2022/04/14 07:11:39;;;;;;;50.95;35.03;;;;;;;;;;5068244;28;20041;-27
2022/04/14 07:14:05;;;;;;;48.88;34.75;;;;;;;;;;5069026;28;20620;-30
2022/04/14 07:16:31;;;;;;;45.30;34.17;;;;;;;;;;5067027;28;20421;-32
2022/04/14 07:18:57;;;;;;;48.55;34.17;;;;;;;;;;5070754;28;20664;-29
2022/04/14 07:21:23;;;;;;;38.80;31.13;;;;;;;;;;5070572;28;20190;-31
2022/04/14 07:23:49;;;;;;;42.60;29.65;;;;;;;;;;5070715;28;20038;-28
2022/04/14 07:26:15;;;;;;;41.20;31.13;;;;;;;;;;5051520;28;20076;-30
2022/04/14 07:28:42;;;;;;;43.47;31.90;;;;;;;;;;5069609;28;20094;-31
2022/04/14 07:31:08;;;;;;;43.72;32.00;;;;;;;;;;5071115;28;20041;-31
2022/04/14 07:33:34;;;;;;;45.53;30.63;;;;;;;;;;5070241;28;20370;-34
2022/04/14 07:36:00;;;;;;;40.88;28.52;;;;;;;;;;5070381;28;20706;-33
2022/04/14 07:38:26;;;;;;;37.58;26.77;;;;;;;;;;5070575;28;20032;-33
2022/04/14 07:40:52;;;;;;;34.47;26.35;;;;;;;;;;5070903;28;20040;-30
2022/04/14 07:43:19;;;;;;;33.70;25.98;;;;;;;;;;5070518;28;20040;-29
2022/04/14 07:45:45;;;;;;;34.88;26.60;;;;;;;;;;5071226;28;20413;-31
2022/04/14 07:48:12;;;;;;;32.45;24.27;;;;;;;;;;5070736;28;20049;-31
2022/04/14 07:50:38;;;;;;;32.10;25.50;;;;;;;;;;5070673;28;20036;-30
2022/04/14 07:53:04;;;;;;;34.75;22.58;;;;;;;;;;5070438;28;20067;-30
2022/04/14 07:55:31;;;;;;;24.15;20.48;;;;;;;;;;5071267;28;20041;-31
2022/04/14 07:57:58;;;;;;;25.85;21.05;;;;;;;;;;5071115;28;20032;-31
2022/04/14 08:00:26;;;;;;;29.27;20.52;;;;;;;;;;5070853;28;20045;-32
2022/04/14 08:02:56;;;;;;;25.77;20.08;;;;;;;;;;5070429;28;20405;-27
2022/04/14 08:05:23;;;;;;;22.88;18.00;;;;;;;;;;5071225;28;20408;-30
2022/04/14 08:07:49;;;;;;;23.00;19.10;;;;;;;;;;5071065;28;20046;-29
2022/04/14 08:10:16;;;;;;;22.08;16.98;;;;;;;;;;5071066;28;20056;-29
2022/04/14 08:12:42;;;;;;;21.95;15.70;;;;;;;;;;5070832;28;20052;-28
2022/04/14 08:15:10;;;;;;;20.75;16.17;;;;;;;;;;5071269;28;20041;-27
2022/04/14 08:17:36;;;;;;;21.33;15.73;;;;;;;;;;5066825;28;20502;-28
2022/04/14 08:20:05;;;;;;;19.52;15.43;;;;;;;;;;5050943;28;20036;-27
2022/04/14 08:22:43;;;;;;;19.52;15.55;;;;;;;;;;5051835;28;20045;-28
2022/04/14 08:25:10;;;;;;;18.30;14.10;;;;;;;;;;5051834;28;20048;-27
2022/04/14 08:27:36;;;;;;;17.05;14.10;;;;;;;;;;5051729;28;20522;-28
2022/04/14 08:30:03;;;;;;;16.10;14.35;;;;;;;;;;5051148;28;20072;-28
2022/04/14 08:32:29;;;;;;;17.52;14.07;;;;;;;;;;5050528;28;20045;-28
2022/04/14 08:34:56;;;;;;;17.83;14.82;;;;;;;;;;5051063;28;20041;-31
2022/04/14 08:37:22;;;;;;;18.30;15.60;;;;;;;;;;5050919;28;20416;-30
2022/04/14 08:39:48;;;;;;;17.15;13.93;;;;;;;;;;5049166;28;20334;-30
2022/04/14 08:42:18;;;;;;;17.52;13.20;;;;;;;;;;5055475;28;20033;-31
2022/04/14 08:44:49;;;;;;;17.73;13.85;;;;;;;;;;5051390;28;20123;-32
2022/04/14 08:47:16;;;;;;;18.35;14.35;;;;;;;;;;5059212;28;20124;-32
2022/04/14 08:49:44;;;;;;;17.00;12.88;;;;;;;;;;5055172;28;20043;-32
2022/04/14 08:52:14;;;;;;;16.88;13.65;;;;;;;;;;5053045;28;20063;-30
2022/04/14 08:54:43;;;;;;;15.70;12.85;;;;;;;;;;5055235;28;20098;-30
2022/04/14 08:57:13;;;;;;;14.00;12.55;;;;;;;;;;5057314;28;20470;-31
2022/04/14 08:59:40;;;;;;;15.15;13.55;;;;;;;;;;5063024;28;20036;-31
2022/04/14 09:02:06;;;;;;;14.70;13.23;;;;;;;;;;5060123;28;20036;-34
2022/04/14 09:04:38;;;;;;;17.38;12.75;;;;;;;;;;5058116;28;20056;-32
2022/04/14 09:07:05;;;;;;;15.88;12.60;;;;;;;;;;5054301;28;20040;-32
2022/04/14 09:09:31;;;;;;;14.13;12.73;;;;;;;;;;5054063;28;20040;-32
2022/04/14 09:11:57;;;;;;;13.85;12.45;;;;;;;;;;5059640;28;20047;-32
2022/04/14 09:14:23;;;;;;;12.98;11.73;;;;;;;;;;5071753;28;20036;-31
2022/04/14 09:16:50;;;;;;;13.88;12.48;;;;;;;;;;5056121;28;20059;-30
2022/04/14 09:19:17;;;;;;;14.07;12.65;;;;;;;;;;5054186;28;20049;-33
2022/04/14 09:21:59;;;;;;;13.73;11.68;;;;;;;;;;5053780;28;20498;-29
2022/04/14 09:24:40;;;;;;;13.23;11.90;;;;;;;;;;5053727;28;20395;-30
2022/04/14 09:27:07;;;;;;;13.38;12.18;;;;;;;;;;5054179;28;20439;-29
2022/04/14 09:29:33;;;;;;;13.10;11.80;;;;;;;;;;5054042;28;20048;-29
2022/04/14 09:31:59;;;;;;;13.98;12.60;;;;;;;;;;5053855;28;20373;-30
2022/04/14 09:34:41;;;;;;;12.60;11.48;;;;;;;;;;5053889;28;20079;-29
2022/04/14 09:37:08;;;;;;;13.63;12.30;;;;;;;;;;5053750;28;20041;-29
2022/04/14 09:39:55;;;;;;;13.05;11.65;;;;;;;;;;5053230;28;20041;-29
2022/04/14 09:42:21;;;;;;;13.35;12.05;;;;;;;;;;5053816;28;20372;-30
2022/04/14 09:44:48;;;;;;;14.02;11.60;;;;;;;;;;5053705;28;20422;-29
2022/04/14 09:47:32;;;;;;;13.85;12.18;;;;;;;;;;5053884;28;20053;-29
2022/04/14 09:49:58;;;;;;;12.93;11.73;;;;;;;;;;5053535;28;20040;-29
2022/04/14 09:52:24;;;;;;;12.63;11.45;;;;;;;;;;5052881;28;20124;-30
2022/04/14 09:55:06;;;;;;;13.38;11.80;;;;;;;;;;5052181;28;20175;-29
2022/04/14 09:57:32;;;;;;;12.40;11.18;;;;;;;;;;5050269;28;20076;-29
2022/04/14 09:59:58;;;;;;;12.80;11.57;;;;;;;;;;5052837;28;20538;-30
2022/04/14 10:02:26;;;;;;;12.73;11.52;;;;;;;;;;5053680;28;20049;-29
2022/04/14 10:04:52;;;;;;;11.60;10.50;;;;;;;;;;5052695;28;20580;-29
2022/04/14 10:07:19;;;;;;;12.55;11.25;;;;;;;;;;5050354;28;20036;-30
2022/04/14 10:09:48;;;;;;;15.27;11.25;;;;;;;;;;5052967;28;20412;-29
2022/04/14 10:12:20;;;;;;;12.60;11.13;;;;;;;;;;5053047;28;20393;-29
2022/04/14 10:15:00;;;;;;;11.98;10.75;;;;;;;;;;5052574;28;20045;-30
2022/04/14 10:17:27;;;;;;;11.38;10.38;;;;;;;;;;5053017;28;20041;-31
2022/04/14 10:19:53;;;;;;;13.90;12.40;;;;;;;;;;5052796;28;20037;-29
2022/04/14 10:22:20;;;;;;;12.52;11.32;;;;;;;;;;5053170;28;20513;-30
2022/04/14 10:24:46;;;;;;;11.98;10.88;;;;;;;;;;5052856;28;20052;-29
2022/04/14 10:27:14;;;;;;;11.63;10.55;;;;;;;;;;5052772;28;20045;-31
2022/04/14 10:29:41;;;;;;;12.65;11.40;;;;;;;;;;5052315;28;20048;-33
2022/04/14 10:32:08;;;;;;;13.45;12.18;;;;;;;;;;5052445;28;20033;-32
2022/04/14 10:34:34;;;;;;;16.15;14.45;;;;;;;;;;5052030;28;20041;-35
2022/04/14 10:37:02;;;;;;;15.43;13.90;;;;;;;;;;5051796;28;20048;-32
2022/04/14 10:39:28;;;;;;;15.30;13.80;;;;;;;;;;5052063;28;20099;-31
2022/04/14 10:41:55;;;;;;;14.43;12.93;;;;;;;;;;5052069;28;20050;-32
2022/04/14 10:44:22;;;;;;;16.50;14.80;;;;;;;;;;5052171;28;20119;-34
2022/04/14 10:46:50;;;;;;;16.00;14.50;;;;;;;;;;5052232;28;20044;-32
2022/04/14 10:49:17;;;;;;;15.93;14.25;;;;;;;;;;5051808;28;20044;-31
2022/04/14 10:51:44;;;;;;;17.92;16.23;;;;;;;;;;5051013;28;20037;-32
2022/04/14 10:54:11;;;;;;;18.05;16.08;;;;;;;;;;5052062;28;20490;-32
2022/04/14 10:56:37;;;;;;;16.65;14.55;;;;;;;;;;5051752;28;20041;-32
2022/04/14 10:59:12;;;;;;;15.23;13.70;;;;;;;;;;5051594;28;20045;-32
2022/04/14 11:01:47;;;;;;;14.50;13.00;;;;;;;;;;5051337;28;20414;-32
2022/04/14 11:04:26;;;;;;;12.57;11.27;;;;;;;;;;5033427;28;20069;-33
2022/04/14 11:06:59;;;;;;;10.63;9.60;;;;;;;;;;5051346;28;20048;-32
2022/04/14 11:09:41;;;;;;;9.63;8.63;;;;;;;;;;5051052;28;20037;-33
2022/04/14 11:12:11;;;;;;;8.88;8.02;;;;;;;;;;5050936;28;20049;-32
2022/04/14 11:14:48;;;;;;;8.27;7.47;;;;;;;;;;5050983;28;20041;-33
2022/04/14 11:17:37;;;;;;;8.77;7.88;;;;;;;;;;5051625;28;20449;-32
2022/04/14 11:20:12;;;;;;;7.75;6.35;;;;;;;;;;5051045;28;20055;-34
2022/04/14 11:22:57;;;;;;;5.78;5.18;;;;;;;;;;5050879;28;20342;-31
2022/04/14 11:25:49;;;;;;;5.63;5.00;;;;;;;;;;5051452;28;20068;-32
2022/04/14 11:28:15;;;;;;;5.50;4.50;;;;;;;;;;5013923;28;20049;-33
2022/04/14 11:30:42;;;;;;;6.25;4.80;;;;;;;;;;5052011;28;20436;-32
2022/04/14 11:33:15;;;;;;;5.88;5.22;;;;;;;;;;5050831;28;20076;-34
2022/04/14 11:35:47;;;;;;;6.30;5.70;;;;;;;;;;5051205;28;20051;-32
2022/04/14 11:38:32;;;;;;;6.13;5.53;;;;;;;;;;5051147;28;20033;-32
2022/04/14 11:40:58;;;;;;;5.72;4.82;;;;;;;;;;5050637;28;20036;-33
2022/04/14 11:43:24;;;;;;;6.32;4.68;;;;;;;;;;5050778;28;20043;-33
2022/04/14 11:45:51;;;;;;;5.57;4.28;;;;;;;;;;5050649;28;20076;-31
2022/04/14 11:48:17;;;;;;;4.55;3.80;;;;;;;;;;5051230;28;20049;-33
2022/04/14 11:50:43;;;;;;;4.90;4.40;;;;;;;;;;5051026;28;20576;-32
2022/04/14 11:53:09;;;;;;;4.75;4.30;;;;;;;;;;5050498;28;20041;-31
2022/04/14 11:55:38;;;;;;;7.00;4.10;;;;;;;;;;5050989;28;20041;-33
2022/04/14 11:58:12;;;;;;;4.70;4.30;;;;;;;;;;5051571;28;20044;-32
2022/04/14 12:00:47;;;;;;;4.65;3.63;;;;;;;;;;5051145;28;20398;-32
2022/04/14 12:03:14;;;;;;;6.03;4.50;;;;;;;;;;5050462;28;20449;-31
2022/04/14 12:05:40;;;;;;;5.20;4.50;;;;;;;;;;5050459;28;20094;-34
2022/04/14 12:08:07;;;;;;;5.35;4.53;;;;;;;;;;5050806;28;20043;-32
2022/04/14 12:10:33;;;;;;;5.47;4.97;;;;;;;;;;5050633;28;20402;-32
2022/04/14 12:13:07;;;;;;;5.18;4.68;;;;;;;;;;5062538;28;20397;-33
2022/04/14 12:15:33;;;;;;;5.03;4.20;;;;;;;;;;5070888;28;20501;-32
2022/04/14 12:18:09;;;;;;;5.13;3.72;;;;;;;;;;5070738;28;20090;-33
2022/04/14 12:20:40;;;;;;;4.10;3.53;;;;;;;;;;5070441;28;20037;-35
2022/04/14 12:23:10;;;;;;;6.90;4.03;;;;;;;;;;5073948;28;20066;-32
2022/04/14 12:25:36;;;;;;;6.25;4.28;;;;;;;;;;5056776;28;20079;-33
2022/04/14 12:28:03;;;;;;;5.30;4.50;;;;;;;;;;5056699;28;20043;-33
2022/04/14 12:30:30;;;;;;;4.40;4.00;;;;;;;;;;5074643;28;20071;-34
2022/04/14 12:33:02;;;;;;;5.97;3.92;;;;;;;;;;5074278;28;20123;-32
2022/04/14 12:35:32;;;;;;;4.35;3.95;;;;;;;;;;5074180;28;20045;-32
2022/04/14 12:38:15;;;;;;;4.47;3.85;;;;;;;;;;5073721;28;20044;-34
2022/04/14 12:40:54;;;;;;;4.28;3.38;;;;;;;;;;5072695;28;20032;-33
2022/04/14 12:43:24;;;;;;;4.40;3.30;;;;;;;;;;5073636;28;20037;-33
2022/04/14 12:45:50;;;;;;;3.72;3.30;;;;;;;;;;5074205;28;20045;-32
2022/04/14 12:48:34;;;;;;;4.53;3.45;;;;;;;;;;5073877;28;20043;-33
2022/04/14 12:51:00;;;;;;;7.38;3.10;;;;;;;;;;5074046;28;20047;-33
2022/04/14 12:53:27;;;;;;;5.65;3.30;;;;;;;;;;5073582;28;20037;-33
2022/04/14 12:56:12;;;;;;;3.38;2.53;;;;;;;;;;5073616;28;20041;-31
2022/04/14 12:58:38;;;;;;;4.90;3.13;;;;;;;;;;5073802;28;20036;-31
2022/04/14 13:01:08;;;;;;;3.42;2.78;;;;;;;;;;5073634;28;20528;-32
2022/04/14 13:03:47;;;;;;;3.95;3.20;;;;;;;;;;5073689;28;20043;-32
2022/04/14 13:06:21;;;;;;;4.78;3.35;;;;;;;;;;5073688;28;20048;-33
2022/04/14 13:08:47;;;;;;;3.88;2.97;;;;;;;;;;5073891;28;20313;-33
2022/04/14 13:11:32;;;;;;;5.72;3.35;;;;;;;;;;5072898;28;20044;-32
2022/04/14 13:14:14;;;;;;;5.85;3.90;;;;;;;;;;5073717;28;20040;-32
2022/04/14 13:16:40;;;;;;;5.28;3.83;;;;;;;;;;5073845;28;20123;-33
2022/04/14 13:19:06;;;;;;;4.78;3.80;;;;;;;;;;5073643;28;20071;-28
2022/04/14 13:21:32;;;;;;;4.30;3.45;;;;;;;;;;5073940;28;20075;-29
2022/04/14 13:23:58;;;;;;;4.63;3.33;;;;;;;;;;5073944;28;20032;-31
2022/04/14 13:26:25;;;;;;;5.07;3.35;;;;;;;;;;5042509;28;20040;-31
2022/04/14 13:28:51;;;;;;;4.03;2.88;;;;;;;;;;5063972;28;20036;-31
2022/04/14 13:31:17;;;;;;;4.78;2.28;;;;;;;;;;5064480;28;20040;-32
2022/04/14 13:33:43;;;;;;;2.47;2.05;;;;;;;;;;5072897;28;20047;-31
2022/04/14 13:36:09;;;;;;;4.93;1.80;;;;;;;;;;5072946;28;20036;-34
2022/04/14 13:38:35;;;;;;;3.72;2.40;;;;;;;;;;5073174;28;20075;-33
2022/04/14 13:41:01;;;;;;;3.75;2.13;;;;;;;;;;5073233;28;20040;-31
2022/04/14 13:43:27;;;;;;;3.20;2.00;;;;;;;;;;5058558;28;20037;-32
2022/04/14 13:45:53;;;;;;;2.35;1.50;;;;;;;;;;5053475;28;20033;-33
2022/04/14 13:48:19;;;;;;;2.85;2.00;;;;;;;;;;5056038;28;20060;-31
2022/04/14 13:50:45;;;;;;;3.70;2.10;;;;;;;;;;5053365;28;20033;-33
2022/04/14 13:53:13;;;;;;;3.15;2.00;;;;;;;;;;5053217;28;20041;-33
2022/04/14 13:55:39;;;;;;;2.90;1.90;;;;;;;;;;5058071;28;20524;-31
2022/04/14 13:58:06;;;;;;;2.78;2.28;;;;;;;;;;5062104;28;20037;-31
2022/04/14 14:00:32;;;;;;;2.88;1.55;;;;;;;;;;5061216;28;20506;-33
2022/04/14 14:02:58;;;;;;;3.83;2.00;;;;;;;;;;5056991;28;20040;-32
2022/04/14 14:05:24;;;;;;;4.07;2.30;;;;;;;;;;5060975;28;20073;-32
2022/04/14 14:07:51;;;;;;;3.65;2.50;;;;;;;;;;5053132;28;20538;-31
2022/04/14 14:10:17;;;;;;;2.30;2.03;;;;;;;;;;5052747;28;20444;-31
2022/04/14 14:12:43;;;;;;;2.67;2.25;;;;;;;;;;5052496;28;20540;-34
2022/04/14 14:15:10;;;;;;;5.43;2.10;;;;;;;;;;5052103;28;20095;-31
2022/04/14 14:17:38;;;;;;;3.25;1.88;;;;;;;;;;5059945;28;20032;-33
2022/04/14 14:20:14;;;;;;;3.35;2.00;;;;;;;;;;5063415;28;20033;-34
2022/04/14 14:22:40;;;;;;;3.47;2.10;;;;;;;;;;5065648;28;20213;-32
2022/04/14 14:25:06;;;;;;;3.67;1.90;;;;;;;;;;5064016;28;20390;-33
2022/04/14 14:27:34;;;;;;;3.15;2.00;;;;;;;;;;5061702;28;20037;-33